Weather History for Claxton, GA

Change the Weather History Date:

Saturday, February 9, 2013

  Actual Average (KSAV) Record (KSAV)
Temperature  
Mean Temperature 52 °F 52 °F  
Max Temperature 68 °F 63 °F 83 °F (1957)
Min Temperature 35 °F 41 °F 17 °F (1895)
Degree Days  
Heating Degree Days 14 13  
Month to date heating degree days 124  
Since 1 July heating degree days 1298  
Cooling Degree Days 0 0  
Month to date cooling degree days 0  
Year to date cooling degree days 3  
Growing Degree Days 2 (Base 50)    
Moisture  
Dew Point 40 °F    
Average Humidity 73    
Maximum Humidity 100    
Minimum Humidity 28    
Precipitation  
Precipitation 0.00 in 0.10 in 1.80 in (1973)
Month to date precipitation 0.94  
Year to date precipitation 4.63  
Sea Level Pressure  
Sea Level Pressure 30.24 in    
Wind  
Wind Speed 2 mph (NE)    
Max Wind Speed 8 mph    
Max Gust Speed -    
Visibility 10 miles    
Events      
T = Trace of Precipitation, MM = Missing Value Source: NWS Daily Summary

Daily Weather History Graph

Daily Weather History Graph

Search for Another Location

Airport:

Trip Planner

Search our weather history database for the weather conditions in past years. The results will help you decide how hot, cold, wet, or windy it might be!

Date:

Astronomy

Feb. 09, 2013 Rise Set
Actual Time 7:15 AM EST 6:08 PM EST
Civil Twilight 6:49 AM EST 6:33 PM EST
Nautical Twilight 6:20 AM EST 7:02 PM EST
Astronomical Twilight 5:52 AM EST 7:31 PM EST
Moon 6:26 AM EST (2/9) 5:47 PM EST (2/9)
Length of Visible Light 11h 44m
Length of Day
10h 53m
Waning Crescent, 0% of the Moon is Illuminated
Feb 9
Waning Crescent
Feb 10
New
Feb 17
First Quarter
Feb 25
Full
Mar 4
Last Quarter

Hourly Weather History & Observations

Time (EST) Temp. Windchill Dew Point Humidity Pressure Visibility Wind Dir Wind Speed Gust Speed Precip Events Conditions
12:15 AM 53.6 °F - 50.0 °F 88% 30.10 in 10.0 mi NW 4.6 mph - N/A   Clear
12:35 AM 51.8 °F - 50.0 °F 94% 30.11 in 10.0 mi NW 5.8 mph - N/A   Clear
12:55 AM 51.8 °F - 48.2 °F 88% 30.11 in 10.0 mi WNW 4.6 mph - N/A   Clear
1:15 AM 51.8 °F - 46.4 °F 82% 30.12 in 10.0 mi NW 3.5 mph - N/A   Clear
1:35 AM 50.0 °F - 46.4 °F 87% 30.11 in 10.0 mi NNW 3.5 mph - N/A   Clear
1:55 AM 50.0 °F - 46.4 °F 87% 30.11 in 10.0 mi Calm Calm - N/A   Clear
2:15 AM 46.4 °F - 44.6 °F 93% 30.12 in 10.0 mi Calm Calm - N/A   Clear
2:35 AM 44.6 °F - 44.6 °F 100% 30.13 in 10.0 mi Calm Calm - N/A   Clear
2:55 AM 44.6 °F - 44.6 °F 100% 30.14 in 10.0 mi Calm Calm - N/A   Clear
3:15 AM 44.6 °F - 44.6 °F 100% 30.15 in 10.0 mi Calm Calm - N/A   Clear
3:35 AM 44.6 °F - 44.6 °F 100% 30.15 in 10.0 mi Calm Calm - N/A   Clear
3:55 AM 42.8 °F - 42.8 °F 100% 30.17 in 10.0 mi Calm Calm - N/A   Clear
4:15 AM 42.8 °F - 42.8 °F 100% 30.17 in 10.0 mi Calm Calm - N/A   Clear
4:35 AM 44.6 °F 43.1 °F 44.6 °F 100% 30.18 in 10.0 mi NNW 3.5 mph - N/A   Clear
4:55 AM 44.6 °F - 42.8 °F 93% 30.18 in 10.0 mi Calm Calm - N/A   Clear
5:15 AM 44.6 °F - 42.8 °F 93% 30.19 in 10.0 mi Calm Calm - N/A   Clear
5:35 AM 41.0 °F - 41.0 °F 100% 30.19 in 10.0 mi Calm Calm - N/A   Clear
5:55 AM 41.0 °F - 41.0 °F 100% 30.20 in 7.0 mi Calm Calm - N/A   Clear
6:15 AM 39.2 °F - 39.2 °F 100% 30.21 in 7.0 mi Calm Calm - N/A   Clear
6:35 AM 37.4 °F - 37.4 °F 100% 30.22 in 7.0 mi Calm Calm - N/A   Clear
6:55 AM 37.4 °F - 37.4 °F 100% 30.23 in 7.0 mi Calm Calm - N/A   Clear
7:15 AM 37.4 °F - 37.4 °F 100% 30.23 in 7.0 mi Calm Calm - N/A   Clear
7:35 AM 35.6 °F - 35.6 °F 100% 30.25 in 7.0 mi Calm Calm - N/A   Clear
7:55 AM 37.4 °F - 37.4 °F 100% 30.26 in 7.0 mi Calm Calm - N/A   Clear
8:15 AM 39.2 °F - 39.2 °F 100% 30.28 in 7.0 mi Calm Calm - N/A   Clear
8:35 AM 42.8 °F - 42.8 °F 100% 30.28 in 7.0 mi Calm Calm - N/A   Clear
8:55 AM 44.6 °F 42.2 °F 42.8 °F 93% 30.28 in 10.0 mi NNE 4.6 mph - N/A   Clear
9:15 AM 48.2 °F - 39.2 °F 71% 30.28 in 10.0 mi NE 6.9 mph - N/A   Clear
9:35 AM 50.0 °F - 37.4 °F 62% 30.29 in 10.0 mi NE 8.1 mph - N/A   Clear
9:55 AM 50.0 °F - 37.4 °F 62% 30.29 in 10.0 mi NE 4.6 mph - N/A   Clear
10:15 AM 51.8 °F - 37.4 °F 58% 30.29 in 10.0 mi NE 6.9 mph - N/A   Clear
10:35 AM 53.6 °F - 37.4 °F 54% 30.29 in 10.0 mi NE 4.6 mph - N/A   Clear
10:55 AM 55.4 °F - 37.4 °F 51% 30.30 in 10.0 mi ENE 5.8 mph - N/A   Clear
11:15 AM 57.2 °F - 35.6 °F 44% 30.30 in 10.0 mi Calm Calm - N/A   Clear
11:35 AM 59.0 °F - 35.6 °F 42% 30.30 in 10.0 mi Calm Calm - N/A   Clear
11:55 AM 59.0 °F - 35.6 °F 42% 30.29 in 10.0 mi ENE 5.8 mph - N/A   Clear
12:15 PM 60.8 °F - 35.6 °F 39% 30.28 in 10.0 mi Calm Calm - N/A   Clear
12:35 PM 60.8 °F - 35.6 °F 39% 30.28 in 10.0 mi Calm Calm - N/A   Clear
12:55 PM 62.6 °F - 35.6 °F 37% 30.27 in 10.0 mi ENE 3.5 mph - N/A   Clear
1:15 PM 62.6 °F - 35.6 °F 37% 30.26 in 10.0 mi Calm Calm - N/A   Clear
1:35 PM 64.4 °F - 35.6 °F 34% 30.26 in 10.0 mi NNE 3.5 mph - N/A   Clear
1:55 PM 64.4 °F - 33.8 °F 32% 30.26 in 10.0 mi Calm Calm - N/A   Clear
2:15 PM 64.4 °F - 33.8 °F 32% 30.25 in 10.0 mi Calm Calm - N/A   Clear
2:35 PM 64.4 °F - 32.0 °F 30% 30.24 in 10.0 mi SSW 3.5 mph - N/A   Clear
2:55 PM 64.4 °F - 32.0 °F 30% 30.23 in 10.0 mi Calm Calm - N/A   Clear
3:15 PM 66.2 °F - 33.8 °F 30% 30.23 in 10.0 mi NE 4.6 mph - N/A   Clear
3:35 PM 66.2 °F - 33.8 °F 30% 30.23 in 10.0 mi East 3.5 mph - N/A   Clear
3:55 PM 68.0 °F - 33.8 °F 28% 30.23 in 10.0 mi Calm Calm - N/A   Clear
4:15 PM 66.2 °F - 32.0 °F 28% 30.23 in 10.0 mi ENE 4.6 mph - N/A   Clear
4:35 PM 66.2 °F - 32.0 °F 28% 30.23 in 10.0 mi Calm Calm - N/A   Clear
4:55 PM 64.4 °F - 33.8 °F 32% 30.23 in 10.0 mi East 4.6 mph - N/A   Clear
5:15 PM 64.4 °F - 37.4 °F 37% 30.23 in 10.0 mi Calm Calm - N/A   Clear
5:35 PM 60.8 °F - 37.4 °F 42% 30.23 in 10.0 mi East 3.5 mph - N/A   Clear
5:55 PM 59.0 °F - 41.0 °F 51% 30.23 in 10.0 mi East 3.5 mph - N/A   Clear
6:15 PM 55.4 °F - 42.8 °F 63% 30.23 in 10.0 mi Calm Calm - N/A   Clear
6:35 PM 51.8 °F - 41.0 °F 67% 30.24 in 10.0 mi Calm Calm - N/A   Clear
6:55 PM 50.0 °F - 42.8 °F 76% 30.25 in 10.0 mi Calm Calm - N/A   Clear
7:15 PM 48.2 °F - 42.8 °F 82% 30.26 in 10.0 mi Calm Calm - N/A   Clear
7:35 PM 46.4 °F - 42.8 °F 87% 30.28 in 10.0 mi Calm Calm - N/A   Clear
7:55 PM 46.4 °F - 42.8 °F 87% 30.29 in 10.0 mi Calm Calm - N/A   Clear
8:35 PM 44.6 °F - 41.0 °F 87% 30.31 in 10.0 mi Calm Calm - N/A   Clear
8:55 PM 44.6 °F - 41.0 °F 87% 30.31 in 10.0 mi Calm Calm - N/A   Clear
9:15 PM 42.8 °F - 41.0 °F 93% 30.31 in 10.0 mi Calm Calm - N/A   Clear
9:35 PM 42.8 °F - 41.0 °F 93% 30.31 in 10.0 mi Calm Calm - N/A   Clear
9:55 PM 42.8 °F - 41.0 °F 93% 30.31 in 10.0 mi Calm Calm - N/A   Clear
10:15 PM 41.0 °F - 39.2 °F 93% 30.31 in 10.0 mi Calm Calm - N/A   Clear
10:35 PM 41.0 °F - 39.2 °F 93% 30.31 in 10.0 mi Calm Calm - N/A   Clear
10:55 PM 41.0 °F - 39.2 °F 93% 30.31 in 10.0 mi Calm Calm - N/A   Clear
11:15 PM 39.2 °F - 39.2 °F 100% 30.31 in 10.0 mi Calm Calm - N/A   Clear
11:35 PM 39.2 °F - 39.2 °F 100% 30.30 in 10.0 mi Calm Calm - N/A   Clear
11:55 PM 37.4 °F - 37.4 °F 100% 30.31 in 10.0 mi Calm Calm - N/A   Clear